Greenway, New York
Current Conditions -  °F | °C
As of 6:02 PM on Thursday 20 Nov 2014 (Local Time) from KRME Reporting Station
Light Snow Light Snow  
Wind Chill: -10°   Ceiling: 2700
Heat Index: -4°   Visibility: 2.5mi
Dew Point: -7°   Wind: 13mph
Humidity: 81%   Direction: 220°SW
Pressure: 29.91"   Gusts: 20mph
Location:  43.2466°N, 75.4624°W
Report Text: KRME 202302Z 22011G17KT 2 1/2SM -SN BKN027 OVC047 M04/M07 A2991 RMK AO2 SNB2255 P0000 T10391067
Loading
Personal Weather Stations






























Interactive Weather Map New forecast layout! Learn more

10-Day Weather Forecast

Advertisements
Track Severe Weather on mobile